Vixen, Louisiana
Current Conditions -  °F | °C
As of 5:53 PM on Saturday 25 Oct 2014 (Local Time) from KMLU Reporting Station
Clear Clear  
Wind Chill: 78°   Ceiling: Unl
Heat Index: 79°   Visibility: 10mi
Dew Point: 60°   Wind: 0mph
Humidity: 54%   Direction: NA
Pressure: 30.08"   Gusts: NA
Location:  32.1631°N, 92.1971°W
Report Text: KMLU 252253Z 00000KT 10SM CLR 26/16 A3008 RMK AO2 SLP184 T02560156
Loading
Personal Weather Stations






























Interactive Weather Map
Tropical Storm Tracking
New forecast layout! Learn more

10-Day Weather Forecast

Advertisements
Track Severe Weather on mobile